createdAt,value
2018-09-30T00:02:18.059Z,67.40
2018-09-30T00:04:47.505Z,67.30
2018-09-30T00:07:16.815Z,67.10
2018-09-30T00:09:46.824Z,67.00
2018-09-30T00:12:16.448Z,66.90
2018-09-30T00:14:46.872Z,66.90
2018-09-30T00:17:16.547Z,66.90
2018-09-30T00:19:49.500Z,66.80
2018-09-30T00:22:19.207Z,66.90
2018-09-30T00:24:54.277Z,66.70
2018-09-30T00:27:24.456Z,66.80
2018-09-30T00:29:55.575Z,66.90
2018-09-30T00:32:25.075Z,66.70
2018-09-30T00:34:54.886Z,66.60
2018-09-30T00:37:25.576Z,65.60
2018-09-30T00:39:55.362Z,65.50
2018-09-30T00:42:24.274Z,65.50
2018-09-30T00:44:53.882Z,65.70
2018-09-30T00:47:23.124Z,66.10
2018-09-30T00:49:53.697Z,66.50
2018-09-30T00:52:23.037Z,67.00
2018-09-30T00:54:52.211Z,67.10
2018-09-30T00:57:21.590Z,67.00
2018-09-30T00:59:51.251Z,66.50
2018-09-30T01:02:20.658Z,66.90
2018-09-30T01:04:51.829Z,68.10
2018-09-30T01:07:21.658Z,68.40
2018-09-30T01:09:51.167Z,68.70
2018-09-30T01:12:20.657Z,68.80
2018-09-30T01:14:49.914Z,68.70
2018-09-30T01:17:19.082Z,68.80
2018-09-30T01:19:48.188Z,68.70
2018-09-30T01:22:17.487Z,68.50
2018-09-30T01:24:53.312Z,67.30
2018-09-30T01:27:22.076Z,67.80
2018-09-30T01:29:51.350Z,68.10
2018-09-30T01:32:21.191Z,68.00
2018-09-30T01:35:04.078Z,68.20
2018-09-30T01:37:33.064Z,68.40
2018-09-30T01:40:02.634Z,68.50
2018-09-30T01:42:31.575Z,68.80
2018-09-30T01:45:01.079Z,69.00
2018-09-30T01:47:30.023Z,69.00
2018-09-30T01:49:59.620Z,68.90
2018-09-30T01:52:39.868Z,69.10
2018-09-30T01:55:09.264Z,69.00
2018-09-30T01:57:39.759Z,69.10
2018-09-30T02:00:09.184Z,69.20
2018-09-30T02:02:41.441Z,69.10
2018-09-30T02:05:10.495Z,69.00
2018-09-30T02:07:47.383Z,69.00
2018-09-30T02:10:17.592Z,68.40
2018-09-30T02:12:46.957Z,67.20
2018-09-30T02:15:16.453Z,67.20
2018-09-30T02:17:46.260Z,67.10
2018-09-30T02:20:15.620Z,67.00
2018-09-30T02:22:45.807Z,67.30
2018-09-30T02:25:15.284Z,67.70
2018-09-30T02:27:44.679Z,67.50
2018-09-30T02:30:13.575Z,68.70
2018-09-30T02:32:42.953Z,68.20
2018-09-30T02:35:15.670Z,68.60
2018-09-30T02:37:45.586Z,68.00
2018-09-30T02:40:14.833Z,68.10
2018-09-30T02:42:43.886Z,68.70
2018-09-30T02:45:13.154Z,69.30
2018-09-30T02:47:42.703Z,69.60
2018-09-30T02:50:11.906Z,69.70
2018-09-30T02:52:40.738Z,69.60
2018-09-30T02:55:09.999Z,69.70
2018-09-30T02:57:45.087Z,69.70
2018-09-30T03:00:18.831Z,69.60
2018-09-30T03:02:51.489Z,69.40
2018-09-30T03:05:20.887Z,69.20
2018-09-30T03:07:55.787Z,69.30
2018-09-30T03:10:25.339Z,69.10
2018-09-30T03:12:55.031Z,69.10
2018-09-30T03:15:24.484Z,69.10
2018-09-30T03:17:53.959Z,69.10
2018-09-30T03:20:22.897Z,68.90
2018-09-30T03:22:53.288Z,68.90
2018-09-30T03:25:22.598Z,68.80
2018-09-30T03:27:51.522Z,69.50
2018-09-30T03:30:20.845Z,68.70
2018-09-30T03:32:53.022Z,68.50
2018-09-30T03:35:21.985Z,68.70
2018-09-30T03:37:51.918Z,68.70
2018-09-30T03:40:21.675Z,68.90
2018-09-30T03:42:51.751Z,68.80
2018-09-30T03:45:21.059Z,69.60
2018-09-30T03:47:50.260Z,69.00
2018-09-30T03:50:24.295Z,69.10
2018-09-30T03:52:53.387Z,69.30
2018-09-30T03:55:22.752Z,69.40
2018-09-30T03:57:53.756Z,69.60
2018-09-30T04:00:23.125Z,70.60
2018-09-30T04:02:52.604Z,70.00
2018-09-30T04:05:21.960Z,69.60
2018-09-30T04:08:25.464Z,68.00
2018-09-30T04:10:54.851Z,67.50
2018-09-30T04:13:24.208Z,67.70
2018-09-30T04:15:54.143Z,67.90
2018-09-30T04:18:23.186Z,67.90
2018-09-30T04:20:52.951Z,68.00
2018-09-30T04:23:22.249Z,67.80
2018-09-30T04:25:51.805Z,68.30
2018-09-30T04:28:20.861Z,68.70
2018-09-30T04:30:49.843Z,69.20
2018-09-30T04:33:19.115Z,69.80
2018-09-30T04:35:49.123Z,69.60
2018-09-30T04:38:18.528Z,70.00
2018-09-30T04:40:47.698Z,70.00
2018-09-30T04:43:17.006Z,70.10
2018-09-30T04:45:47.249Z,70.00
2018-09-30T04:48:16.607Z,69.90
2018-09-30T04:50:46.317Z,69.80
2018-09-30T04:53:21.141Z,69.90
2018-09-30T04:56:20.014Z,69.80
2018-09-30T04:58:49.347Z,69.70
2018-09-30T05:01:18.815Z,69.80
2018-09-30T05:03:47.843Z,69.90
2018-09-30T05:06:23.086Z,70.60
2018-09-30T05:08:52.228Z,72.00
2018-09-30T05:11:21.625Z,69.60
2018-09-30T05:13:55.888Z,69.40
2018-09-30T05:16:26.198Z,68.70
2018-09-30T05:18:55.664Z,68.20
2018-09-30T05:21:24.544Z,67.50
2018-09-30T05:23:54.155Z,67.10
2018-09-30T05:26:23.286Z,67.00
2018-09-30T05:28:55.632Z,66.50
2018-09-30T05:31:25.088Z,66.20
2018-09-30T05:33:55.300Z,66.30
2018-09-30T05:36:24.628Z,64.60
2018-09-30T05:38:54.372Z,63.70
2018-09-30T05:41:23.807Z,63.40
2018-09-30T05:43:55.455Z,62.80
2018-09-30T05:46:24.997Z,63.30
2018-09-30T05:48:54.461Z,64.00
2018-09-30T05:51:23.785Z,64.10
2018-09-30T05:53:55.601Z,64.70
2018-09-30T05:56:25.023Z,64.60
2018-09-30T05:58:54.554Z,64.30
2018-09-30T06:01:24.763Z,64.00
2018-09-30T06:03:59.023Z,64.20
2018-09-30T06:06:28.561Z,64.40
2018-09-30T06:09:00.205Z,64.40
2018-09-30T06:11:29.273Z,64.50
2018-09-30T06:13:59.065Z,64.40
2018-09-30T06:16:28.309Z,64.50
2018-09-30T06:18:58.788Z,64.40
2018-09-30T06:21:27.793Z,64.20
2018-09-30T06:23:57.423Z,65.10
2018-09-30T06:26:27.180Z,64.00
2018-09-30T06:28:57.148Z,63.90
2018-09-30T06:31:27.257Z,64.00
2018-09-30T06:34:03.890Z,64.00
2018-09-30T06:36:33.196Z,64.00
2018-09-30T06:39:02.571Z,64.00
2018-09-30T06:41:32.549Z,63.90
2018-09-30T06:44:01.992Z,64.60
2018-09-30T06:46:31.611Z,63.90
2018-09-30T06:49:01.427Z,63.80
2018-09-30T06:51:31.556Z,65.00
2018-09-30T06:54:01.690Z,65.10
2018-09-30T06:56:32.591Z,65.50
2018-09-30T06:59:09.386Z,65.10
2018-09-30T07:01:39.520Z,63.80
2018-09-30T07:04:09.560Z,63.40
2018-09-30T07:06:39.599Z,62.70
2018-09-30T07:09:09.589Z,63.10
2018-09-30T07:11:38.898Z,63.30
2018-09-30T07:14:09.534Z,63.70
2018-09-30T07:16:39.615Z,63.70
2018-09-30T07:19:09.352Z,63.60
2018-09-30T07:21:39.025Z,63.30
2018-09-30T07:24:08.895Z,63.20
2018-09-30T07:26:38.521Z,62.90
2018-09-30T07:29:09.885Z,62.90
2018-09-30T07:31:40.128Z,62.80
2018-09-30T07:34:18.196Z,62.90
2018-09-30T07:36:49.028Z,62.90
2018-09-30T07:39:18.249Z,62.90
2018-09-30T07:41:55.065Z,63.10
2018-09-30T07:44:24.807Z,63.30
2018-09-30T07:46:55.451Z,63.20
2018-09-30T07:49:24.883Z,63.40
2018-09-30T07:51:54.692Z,63.40
2018-09-30T07:54:24.079Z,63.50
2018-09-30T07:56:53.568Z,63.70
2018-09-30T07:59:23.204Z,64.30
2018-09-30T08:01:54.143Z,64.00
2018-09-30T08:04:23.447Z,64.70
2018-09-30T08:06:52.984Z,66.20
2018-09-30T08:09:22.761Z,69.70
2018-09-30T08:11:52.643Z,68.20
2018-09-30T08:14:22.068Z,67.20
2018-09-30T08:16:52.283Z,67.10
2018-09-30T08:19:21.990Z,64.80
2018-09-30T08:21:51.442Z,61.00
2018-09-30T08:24:21.815Z,60.20
2018-09-30T08:26:52.125Z,60.40
2018-09-30T08:29:21.424Z,61.50
2018-09-30T08:31:51.828Z,58.80
2018-09-30T08:34:21.638Z,59.00
2018-09-30T08:36:51.314Z,59.00
2018-09-30T08:39:21.417Z,59.60
2018-09-30T08:41:51.792Z,60.20
2018-09-30T08:44:22.003Z,61.10
2018-09-30T08:46:51.791Z,61.50
2018-09-30T08:49:21.392Z,62.40
2018-09-30T08:51:51.212Z,62.60
2018-09-30T08:54:20.821Z,62.80
2018-09-30T08:56:50.161Z,62.50
2018-09-30T08:59:19.985Z,63.00
2018-09-30T09:01:52.420Z,63.00
2018-09-30T09:04:24.139Z,63.50
2018-09-30T09:06:53.731Z,63.40
2018-09-30T09:09:23.338Z,63.80
2018-09-30T09:11:52.831Z,64.10
2018-09-30T09:14:23.160Z,63.90
2018-09-30T09:16:52.757Z,64.00
2018-09-30T09:19:22.663Z,64.20
2018-09-30T09:21:52.522Z,64.30
2018-09-30T09:24:22.135Z,64.20
2018-09-30T09:26:51.734Z,64.10
2018-09-30T09:29:22.520Z,64.40
2018-09-30T09:31:53.850Z,64.50
2018-09-30T09:34:23.124Z,64.70
2018-09-30T09:36:52.653Z,64.60
2018-09-30T09:39:22.679Z,64.80
2018-09-30T09:41:52.114Z,64.90
2018-09-30T09:44:22.313Z,64.70
2018-09-30T09:46:52.307Z,64.60
2018-09-30T09:49:23.011Z,64.90
2018-09-30T09:51:52.370Z,65.10
2018-09-30T09:54:22.104Z,65.80
2018-09-30T09:56:51.707Z,65.30
2018-09-30T09:59:21.602Z,65.00
2018-09-30T10:01:51.403Z,64.80
2018-09-30T10:04:21.449Z,64.40
2018-09-30T10:06:51.478Z,64.80
2018-09-30T10:09:21.394Z,63.70
2018-09-30T10:11:51.872Z,63.90
2018-09-30T10:14:21.831Z,63.60
2018-09-30T10:16:51.642Z,64.00
2018-09-30T10:19:22.804Z,64.40
2018-09-30T10:21:53.686Z,64.00
2018-09-30T10:24:23.349Z,64.30
2018-09-30T10:26:53.667Z,64.10
2018-09-30T10:29:25.522Z,62.70
2018-09-30T10:31:55.403Z,62.80
2018-09-30T10:34:25.326Z,62.60
2018-09-30T10:36:54.923Z,62.10
2018-09-30T10:39:24.961Z,62.30
2018-09-30T10:41:55.036Z,62.50
2018-09-30T10:44:24.828Z,63.30
2018-09-30T10:46:54.948Z,63.10
2018-09-30T10:49:24.569Z,63.50
2018-09-30T10:51:55.086Z,63.00
2018-09-30T10:54:25.728Z,62.50
2018-09-30T10:56:55.308Z,62.30
2018-09-30T10:59:25.279Z,62.50
2018-09-30T11:01:54.907Z,63.20
2018-09-30T11:04:24.872Z,62.50
2018-09-30T11:06:54.208Z,61.20
2018-09-30T11:09:23.961Z,61.40
2018-09-30T11:11:53.965Z,61.70
2018-09-30T11:14:23.278Z,61.70
2018-09-30T11:16:53.631Z,61.50
2018-09-30T11:19:30.433Z,61.40
2018-09-30T11:22:06.671Z,61.90
2018-09-30T11:24:36.991Z,61.60
2018-09-30T11:27:06.657Z,61.60
2018-09-30T11:29:36.674Z,61.00
2018-09-30T11:32:07.272Z,60.00
2018-09-30T11:34:38.079Z,59.80
2018-09-30T11:37:07.305Z,59.40
2018-09-30T11:39:37.805Z,59.90
2018-09-30T11:42:07.487Z,59.90
2018-09-30T11:44:38.595Z,58.80
2018-09-30T11:47:08.714Z,58.60
2018-09-30T11:49:38.872Z,59.20
2018-09-30T11:52:08.833Z,59.00
2018-09-30T11:54:38.961Z,57.60
2018-09-30T11:57:08.582Z,57.60
2018-09-30T12:02:18.526Z,56.90
2018-09-30T12:04:52.442Z,56.90
2018-09-30T12:07:30.353Z,57.10
2018-09-30T12:10:01.020Z,55.80
2018-09-30T12:12:31.787Z,54.60
2018-09-30T12:15:01.587Z,55.50
2018-09-30T12:17:32.541Z,56.10
2018-09-30T12:20:04.826Z,56.00
2018-09-30T12:22:35.141Z,55.30
2018-09-30T12:25:07.754Z,54.30
2018-09-30T12:27:38.322Z,54.20
2018-09-30T12:30:09.782Z,53.80
2018-09-30T12:32:40.514Z,52.20
2018-09-30T12:35:11.041Z,54.00
2018-09-30T12:37:41.438Z,54.10
2018-09-30T12:40:11.531Z,53.40
2018-09-30T12:42:42.727Z,53.20
2018-09-30T12:45:14.067Z,52.50
2018-09-30T12:47:44.335Z,51.40
2018-09-30T12:50:14.664Z,53.80
2018-09-30T12:52:44.738Z,53.30
2018-09-30T12:55:15.085Z,53.40
2018-09-30T12:57:45.378Z,52.10
2018-09-30T13:00:15.792Z,52.60
2018-09-30T13:02:45.625Z,50.90
2018-09-30T13:05:15.859Z,51.30
2018-09-30T13:07:46.249Z,51.00
2018-09-30T13:10:16.529Z,50.60
2018-09-30T13:12:46.341Z,52.90
2018-09-30T13:15:16.287Z,51.50
2018-09-30T13:17:46.826Z,50.80
2018-09-30T13:20:16.680Z,52.40
2018-09-30T13:22:46.179Z,51.10
2018-09-30T13:25:16.192Z,50.30
2018-09-30T13:27:46.192Z,51.10
2018-09-30T13:30:16.727Z,50.30
2018-09-30T13:32:47.405Z,50.20
2018-09-30T13:35:17.667Z,51.50
2018-09-30T13:37:47.799Z,50.20
2018-09-30T13:40:18.474Z,50.40
2018-09-30T13:42:47.862Z,50.00
2018-09-30T13:45:18.333Z,49.40
2018-09-30T13:47:48.097Z,49.70
2018-09-30T13:50:17.888Z,49.50
2018-09-30T13:52:47.589Z,49.10
2018-09-30T13:55:16.909Z,49.80
2018-09-30T13:57:46.635Z,48.60
2018-09-30T14:00:17.123Z,49.40
2018-09-30T14:02:47.700Z,50.00
2018-09-30T14:05:17.804Z,49.40
2018-09-30T14:07:47.882Z,49.00
2018-09-30T14:10:17.711Z,48.00
2018-09-30T14:12:47.155Z,48.50
2018-09-30T14:15:16.791Z,47.90
2018-09-30T14:17:46.881Z,47.90
2018-09-30T14:20:16.547Z,47.90
2018-09-30T14:22:45.952Z,47.70
2018-09-30T14:25:16.262Z,47.60
2018-09-30T14:27:46.284Z,47.80
2018-09-30T14:30:16.130Z,47.70
2018-09-30T14:32:46.384Z,48.20
2018-09-30T14:35:16.222Z,47.30
2018-09-30T14:37:45.622Z,47.60
2018-09-30T14:40:15.682Z,47.30
2018-09-30T14:42:45.776Z,47.40
2018-09-30T14:45:23.098Z,47.30
2018-09-30T14:48:09.270Z,47.10
2018-09-30T14:50:41.593Z,47.10
2018-09-30T14:53:12.076Z,47.10
2018-09-30T14:55:44.053Z,47.10
2018-09-30T14:58:22.911Z,47.60
2018-09-30T15:00:55.144Z,47.20
2018-09-30T15:03:25.899Z,47.20
2018-09-30T15:05:56.625Z,47.60
2018-09-30T15:08:36.530Z,47.00
2018-09-30T15:11:09.849Z,47.10
2018-09-30T15:13:42.113Z,47.40
2018-09-30T15:16:14.107Z,47.40
2018-09-30T15:18:59.958Z,47.90
2018-09-30T15:21:31.610Z,48.90
2018-09-30T15:24:02.343Z,47.90
2018-09-30T15:26:33.303Z,47.80
2018-09-30T15:29:08.722Z,47.50
2018-09-30T15:31:55.355Z,47.90
2018-09-30T15:34:26.378Z,47.50
2018-09-30T15:36:56.357Z,48.20
2018-09-30T15:39:28.099Z,48.00
2018-09-30T15:42:01.364Z,48.60
2018-09-30T15:44:35.134Z,48.20
2018-09-30T15:47:06.948Z,48.10
2018-09-30T15:49:37.486Z,47.60
2018-09-30T15:52:07.807Z,47.20
2018-09-30T15:54:47.024Z,47.90
2018-09-30T15:57:30.207Z,47.90
2018-09-30T16:00:00.199Z,48.30
2018-09-30T16:02:34.344Z,56.30
2018-09-30T16:05:04.361Z,49.30
2018-09-30T16:07:39.513Z,48.20
2018-09-30T16:10:11.445Z,47.70
2018-09-30T16:12:41.482Z,47.50
2018-09-30T16:15:11.409Z,46.80
2018-09-30T16:17:40.602Z,47.30
2018-09-30T16:20:10.340Z,46.30
2018-09-30T16:22:40.612Z,46.30
2018-09-30T16:25:10.431Z,46.10
2018-09-30T16:27:40.037Z,46.00
2018-09-30T16:30:10.030Z,46.10
2018-09-30T16:32:39.969Z,46.30
2018-09-30T16:35:09.795Z,46.10
2018-09-30T16:37:39.793Z,46.10
2018-09-30T16:40:09.563Z,46.50
2018-09-30T16:42:39.045Z,47.00
2018-09-30T16:45:08.678Z,49.50
2018-09-30T16:47:39.222Z,48.50
2018-09-30T16:50:09.149Z,47.70
2018-09-30T16:52:38.846Z,47.60
2018-09-30T16:55:08.509Z,47.70
2018-09-30T16:57:38.571Z,47.70
2018-09-30T17:00:10.957Z,47.60
2018-09-30T17:02:40.430Z,47.70
2018-09-30T17:05:10.080Z,47.90
2018-09-30T17:07:42.039Z,47.80
2018-09-30T17:10:11.688Z,48.20
2018-09-30T17:12:41.268Z,49.60
2018-09-30T17:15:10.658Z,49.50
2018-09-30T17:17:40.069Z,50.00
2018-09-30T17:20:09.797Z,49.20
2018-09-30T17:22:40.287Z,48.90
2018-09-30T17:25:09.856Z,48.70
2018-09-30T17:27:38.972Z,48.70
2018-09-30T17:30:08.733Z,49.00
2018-09-30T17:32:38.828Z,49.80
2018-09-30T17:35:08.355Z,50.40
2018-09-30T17:37:38.139Z,50.90
2018-09-30T17:40:07.650Z,51.50
2018-09-30T17:42:37.857Z,51.90
2018-09-30T17:45:07.944Z,52.10
2018-09-30T17:47:37.544Z,52.30
2018-09-30T17:50:07.182Z,53.40
2018-09-30T17:52:37.459Z,53.00
2018-09-30T17:55:07.008Z,53.60
2018-09-30T17:57:35.836Z,54.10
2018-09-30T18:00:06.780Z,54.70
2018-09-30T18:02:36.543Z,54.90
2018-09-30T18:05:08.482Z,55.10
2018-09-30T18:07:38.981Z,55.30
2018-09-30T18:10:08.816Z,55.50
2018-09-30T18:12:38.600Z,55.80
2018-09-30T18:15:09.261Z,55.80
2018-09-30T18:17:39.459Z,56.10
2018-09-30T18:20:10.802Z,56.80
2018-09-30T18:22:40.705Z,57.20
2018-09-30T18:25:10.208Z,57.40
2018-09-30T18:27:40.357Z,57.70
2018-09-30T18:30:11.877Z,58.00
2018-09-30T18:32:41.833Z,58.00
2018-09-30T18:35:12.744Z,58.20
2018-09-30T18:37:43.395Z,58.40
2018-09-30T18:40:13.591Z,58.50
2018-09-30T18:42:43.644Z,58.40
2018-09-30T18:45:13.473Z,58.50
2018-09-30T18:47:43.626Z,58.50
2018-09-30T18:50:13.424Z,58.70
2018-09-30T18:52:44.412Z,58.70
2018-09-30T18:55:13.894Z,58.80
2018-09-30T18:57:43.867Z,59.00
2018-09-30T19:00:14.992Z,59.20
2018-09-30T19:02:45.905Z,59.30
2018-09-30T19:05:15.894Z,58.60
2018-09-30T19:07:45.689Z,57.60
2018-09-30T19:10:15.345Z,56.70
2018-09-30T19:12:45.386Z,56.60
2018-09-30T19:15:15.481Z,56.50
2018-09-30T19:17:45.467Z,56.40
2018-09-30T19:20:19.073Z,57.40
2018-09-30T19:22:49.670Z,58.70
2018-09-30T19:25:19.950Z,58.30
2018-09-30T19:27:49.683Z,58.30
2018-09-30T19:30:19.083Z,59.80
2018-09-30T19:32:49.764Z,60.60
2018-09-30T19:35:19.623Z,59.90
2018-09-30T19:37:48.658Z,61.50
2018-09-30T19:40:18.327Z,62.60
2018-09-30T19:42:51.965Z,61.60
2018-09-30T19:45:24.795Z,60.00
2018-09-30T19:47:54.214Z,62.80
2018-09-30T19:50:26.408Z,62.90
2018-09-30T19:52:56.167Z,62.30
2018-09-30T19:55:27.899Z,62.00
2018-09-30T19:57:58.295Z,64.70
2018-09-30T20:00:28.051Z,63.90
2018-09-30T20:02:57.713Z,64.50
2018-09-30T20:05:27.616Z,65.90
2018-09-30T20:07:58.086Z,67.20
2018-09-30T20:10:28.071Z,68.20
2018-09-30T20:12:57.734Z,69.40
2018-09-30T20:15:27.456Z,69.70
2018-09-30T20:17:56.916Z,69.80
2018-09-30T20:20:26.465Z,69.70
2018-09-30T20:22:55.864Z,70.20
2018-09-30T20:25:25.910Z,70.70
2018-09-30T20:27:55.500Z,71.40
2018-09-30T20:30:24.848Z,70.90
2018-09-30T20:32:54.371Z,71.70
2018-09-30T20:35:24.188Z,72.20
2018-09-30T20:37:53.548Z,73.70
2018-09-30T20:40:22.682Z,74.20
2018-09-30T20:42:51.773Z,74.70
2018-09-30T20:45:21.309Z,75.10
2018-09-30T20:47:51.051Z,76.80
2018-09-30T20:50:22.405Z,77.20
2018-09-30T20:52:51.891Z,77.70
2018-09-30T20:55:21.616Z,76.90
2018-09-30T20:57:51.175Z,77.30
2018-09-30T21:00:21.216Z,76.60
2018-09-30T21:02:50.943Z,78.10
2018-09-30T21:06:38.893Z,77.80
2018-09-30T21:09:10.613Z,79.20
2018-09-30T21:11:40.103Z,79.20
2018-09-30T21:14:09.400Z,79.10
2018-09-30T21:16:38.970Z,78.30
2018-09-30T21:19:08.838Z,79.90
2018-09-30T21:21:38.046Z,80.20
2018-09-30T21:24:12.732Z,80.70
2018-09-30T21:26:44.202Z,81.30
2018-09-30T21:29:14.674Z,81.30
2018-09-30T21:31:45.465Z,81.10
2018-09-30T21:34:14.787Z,81.40
2018-09-30T21:36:45.192Z,82.10
2018-09-30T21:39:15.321Z,82.50
2018-09-30T21:41:47.350Z,82.60
2018-09-30T21:44:16.834Z,82.10
2018-09-30T21:46:46.476Z,82.30
2018-09-30T21:49:15.956Z,82.10
2018-09-30T21:51:45.274Z,82.30
2018-09-30T21:54:14.829Z,82.00
2018-09-30T21:56:45.625Z,81.80
2018-09-30T21:59:15.069Z,80.10
2018-09-30T22:01:45.199Z,80.60
2018-09-30T22:04:14.732Z,80.50
2018-09-30T22:06:44.564Z,79.70
2018-09-30T22:09:13.741Z,80.00
2018-09-30T22:11:43.460Z,80.50
2018-09-30T22:14:12.925Z,80.40
2018-09-30T22:16:42.790Z,79.50
2018-09-30T22:19:11.916Z,80.10
2018-09-30T22:21:41.096Z,80.10
2018-09-30T22:24:10.433Z,80.10
2018-09-30T22:26:40.696Z,79.80
2018-09-30T22:29:09.688Z,80.00
2018-09-30T22:31:39.282Z,80.00
2018-09-30T22:34:08.854Z,79.90
2018-09-30T22:36:38.476Z,79.30
2018-09-30T22:39:08.577Z,78.80
2018-09-30T22:41:39.523Z,79.10
2018-09-30T22:44:08.918Z,79.00
2018-09-30T22:46:38.165Z,78.70
2018-09-30T22:49:07.468Z,79.20
2018-09-30T22:51:36.740Z,78.90
2018-09-30T22:54:06.145Z,78.30
2018-09-30T22:56:37.487Z,79.00
2018-09-30T22:59:06.408Z,78.20
2018-09-30T23:01:35.975Z,78.80
2018-09-30T23:04:05.256Z,79.30
2018-09-30T23:06:35.401Z,78.80
2018-09-30T23:09:06.121Z,79.80
2018-09-30T23:11:36.041Z,81.00
2018-09-30T23:14:05.177Z,81.50
2018-09-30T23:16:34.811Z,80.20
2018-09-30T23:19:03.940Z,80.60
2018-09-30T23:21:33.403Z,80.40
2018-09-30T23:24:02.971Z,81.70
2018-09-30T23:26:32.210Z,82.30
2018-09-30T23:29:01.621Z,82.40
2018-09-30T23:31:35.512Z,80.50
2018-09-30T23:34:04.589Z,81.10
2018-09-30T23:36:33.724Z,82.10
2018-09-30T23:39:02.869Z,82.50
2018-09-30T23:41:32.458Z,82.40
2018-09-30T23:44:01.537Z,82.50
2018-09-30T23:46:30.630Z,81.00
2018-09-30T23:49:00.685Z,81.60
2018-09-30T23:51:30.735Z,79.70
2018-09-30T23:53:59.686Z,80.50
2018-09-30T23:56:28.745Z,80.40
2018-09-30T23:58:57.819Z,80.90
